createdAt,value
2022-11-27T00:01:10.944Z,70.52
2022-11-27T00:03:39.245Z,70.09
2022-11-27T00:06:12.951Z,69.41
2022-11-27T00:08:40.898Z,71.06
2022-11-27T00:11:10.291Z,74.58
2022-11-27T00:13:38.583Z,76.12
2022-11-27T00:16:07.672Z,78.68
2022-11-27T00:18:36.204Z,78.42
2022-11-27T00:21:05.580Z,76.56
2022-11-27T00:23:35.675Z,74.07
2022-11-27T00:26:04.818Z,73.10
2022-11-27T00:28:33.145Z,72.50
2022-11-27T00:31:01.507Z,72.29
2022-11-27T00:33:29.735Z,72.00
2022-11-27T00:35:57.708Z,72.02
2022-11-27T00:38:25.630Z,72.57
2022-11-27T00:40:54.955Z,72.92
2022-11-27T00:43:22.847Z,72.27
2022-11-27T00:45:50.851Z,73.86
2022-11-27T00:48:18.729Z,73.70
2022-11-27T00:50:46.788Z,75.30
2022-11-27T00:53:14.685Z,77.26
2022-11-27T00:55:42.614Z,77.57
2022-11-27T00:58:11.846Z,78.69
2022-11-27T01:00:39.771Z,80.14
2022-11-27T01:03:07.883Z,80.03
2022-11-27T01:05:37.127Z,80.25
2022-11-27T01:08:05.443Z,80.89
2022-11-27T01:10:33.449Z,80.08
2022-11-27T01:13:01.327Z,80.58
2022-11-27T01:15:30.547Z,82.31
2022-11-27T01:17:58.492Z,83.64
2022-11-27T01:20:26.366Z,83.02
2022-11-27T01:22:54.384Z,83.57
2022-11-27T01:25:26.725Z,84.01
2022-11-27T01:27:55.077Z,82.62
2022-11-27T01:30:23.060Z,81.66
2022-11-27T01:32:52.349Z,79.98
2022-11-27T01:35:20.295Z,79.09
2022-11-27T01:37:48.209Z,79.28
2022-11-27T01:40:16.142Z,78.88
2022-11-27T01:42:44.044Z,78.48
2022-11-27T01:45:16.345Z,77.60
2022-11-27T01:47:47.990Z,77.38
2022-11-27T01:50:22.422Z,77.13
2022-11-27T01:52:53.895Z,77.17
2022-11-27T01:55:29.865Z,77.20
2022-11-27T01:58:01.616Z,77.34
2022-11-27T02:00:29.524Z,77.41
2022-11-27T02:02:57.775Z,78.20
2022-11-27T02:05:29.231Z,77.55
2022-11-27T02:08:00.052Z,79.03
2022-11-27T02:10:40.080Z,79.72
2022-11-27T02:13:14.505Z,79.70
2022-11-27T02:15:47.595Z,78.72
2022-11-27T02:18:23.089Z,78.08
2022-11-27T02:20:58.872Z,78.10
2022-11-27T02:23:57.303Z,77.81
2022-11-27T02:26:42.452Z,78.22
2022-11-27T02:29:13.417Z,77.88
2022-11-27T02:31:46.764Z,80.30
2022-11-27T02:34:24.514Z,78.62
2022-11-27T02:36:58.693Z,77.34
2022-11-27T02:39:32.713Z,77.95
2022-11-27T02:42:07.642Z,77.54
2022-11-27T02:44:43.071Z,77.06
2022-11-27T02:47:13.206Z,76.76
2022-11-27T02:49:44.274Z,76.05
2022-11-27T02:52:15.705Z,75.99
2022-11-27T02:54:47.065Z,75.58
2022-11-27T02:57:17.003Z,75.38
2022-11-27T02:59:46.990Z,74.46
2022-11-27T03:02:19.970Z,75.30
2022-11-27T03:04:52.505Z,76.80
2022-11-27T03:07:26.951Z,78.13
2022-11-27T03:10:00.298Z,78.21
2022-11-27T03:12:28.861Z,78.09
2022-11-27T03:14:58.254Z,77.97
2022-11-27T03:17:38.684Z,78.53
2022-11-27T03:20:12.220Z,78.68
2022-11-27T03:22:40.167Z,79.41
2022-11-27T03:25:08.903Z,79.74
2022-11-27T03:27:42.219Z,80.96
2022-11-27T03:30:13.901Z,81.14
2022-11-27T03:32:42.089Z,79.62
2022-11-27T03:35:12.886Z,79.37
2022-11-27T03:37:41.070Z,78.34
2022-11-27T03:40:10.742Z,76.65
2022-11-27T03:42:49.855Z,75.99
2022-11-27T03:45:31.247Z,75.26
2022-11-27T03:48:19.168Z,74.71
2022-11-27T03:51:00.943Z,74.76
2022-11-27T03:53:38.095Z,74.23
2022-11-27T03:56:12.806Z,73.59
2022-11-27T03:58:48.657Z,73.41
2022-11-27T04:01:21.075Z,73.44
2022-11-27T04:03:49.223Z,73.42
2022-11-27T04:06:17.388Z,73.34
2022-11-27T04:08:46.848Z,72.68
2022-11-27T04:11:15.072Z,72.76
2022-11-27T04:13:42.997Z,73.39
2022-11-27T04:16:11.159Z,73.17
2022-11-27T04:18:41.254Z,73.51
2022-11-27T04:21:09.133Z,73.20
2022-11-27T04:23:37.792Z,73.11
2022-11-27T04:26:06.174Z,73.18
2022-11-27T04:28:34.242Z,72.96
2022-11-27T04:31:02.500Z,72.70
2022-11-27T04:33:30.472Z,72.87
2022-11-27T04:35:59.759Z,72.10
2022-11-27T04:38:27.682Z,71.88
2022-11-27T04:40:55.612Z,72.15
2022-11-27T04:43:23.585Z,71.80
2022-11-27T04:45:51.742Z,71.24
2022-11-27T04:48:19.733Z,71.74
2022-11-27T04:50:47.712Z,72.00
2022-11-27T04:53:17.058Z,71.71
2022-11-27T04:55:44.951Z,71.82
2022-11-27T04:58:12.903Z,71.87
2022-11-27T05:00:40.849Z,71.52
2022-11-27T05:03:09.084Z,71.37
2022-11-27T05:05:36.984Z,71.03
2022-11-27T05:08:05.251Z,72.70
2022-11-27T05:10:34.697Z,72.03
2022-11-27T05:13:02.670Z,71.78
2022-11-27T05:15:30.578Z,71.76
2022-11-27T05:17:58.500Z,71.65
2022-11-27T05:20:26.404Z,71.67
2022-11-27T05:22:54.350Z,71.30
2022-11-27T05:25:22.255Z,71.31
2022-11-27T05:27:51.573Z,71.52
2022-11-27T05:30:19.575Z,71.39
2022-11-27T05:32:47.457Z,71.76
2022-11-27T05:35:15.498Z,71.44
2022-11-27T05:37:43.449Z,71.87
2022-11-27T05:40:11.875Z,71.79
2022-11-27T05:42:39.800Z,72.00
2022-11-27T05:45:09.964Z,71.77
2022-11-27T05:47:37.876Z,72.14
2022-11-27T05:50:06.578Z,71.89
2022-11-27T05:52:34.463Z,71.71
2022-11-27T05:55:02.469Z,71.51
2022-11-27T05:57:31.033Z,71.71
2022-11-27T05:59:59.188Z,71.78
2022-11-27T06:02:29.601Z,71.82
2022-11-27T06:04:57.815Z,71.73
2022-11-27T06:07:25.926Z,72.11
2022-11-27T06:09:53.951Z,72.48
2022-11-27T06:12:21.865Z,72.89
2022-11-27T06:14:49.805Z,73.05
2022-11-27T06:17:17.731Z,72.88
2022-11-27T06:19:47.047Z,73.30
2022-11-27T06:22:14.937Z,73.35
2022-11-27T06:24:43.345Z,73.44
2022-11-27T06:27:11.331Z,73.64
2022-11-27T06:29:39.616Z,73.80
2022-11-27T06:32:07.728Z,73.63
2022-11-27T06:34:35.690Z,73.36
2022-11-27T06:37:08.055Z,73.35
2022-11-27T06:39:39.915Z,73.19
2022-11-27T06:42:07.810Z,73.58
2022-11-27T06:44:35.726Z,74.08
2022-11-27T06:47:03.619Z,73.53
2022-11-27T06:49:31.559Z,73.15
2022-11-27T06:51:59.617Z,73.06
2022-11-27T06:54:28.979Z,73.17
2022-11-27T06:56:56.960Z,73.55
2022-11-27T06:59:25.384Z,73.68
2022-11-27T07:01:55.650Z,74.20
2022-11-27T07:04:24.424Z,74.19
2022-11-27T07:06:52.383Z,74.06
2022-11-27T07:09:20.347Z,74.12
2022-11-27T07:11:49.699Z,74.28
2022-11-27T07:14:17.575Z,74.23
2022-11-27T07:16:45.557Z,74.50
2022-11-27T07:19:14.712Z,74.49
2022-11-27T07:21:42.656Z,74.83
2022-11-27T07:24:10.585Z,75.17
2022-11-27T07:26:38.490Z,75.33
2022-11-27T07:29:07.778Z,75.06
2022-11-27T07:31:35.791Z,75.20
2022-11-27T07:34:06.896Z,75.20
2022-11-27T07:36:37.938Z,75.19
2022-11-27T07:39:05.852Z,74.41
2022-11-27T07:41:34.362Z,74.17
2022-11-27T07:44:02.424Z,73.96
2022-11-27T07:46:31.725Z,73.61
2022-11-27T07:49:00.694Z,73.69
2022-11-27T07:51:29.192Z,73.97
2022-11-27T07:53:57.120Z,73.70
2022-11-27T07:56:25.083Z,74.08
2022-11-27T07:58:52.955Z,73.86
2022-11-27T08:01:21.763Z,74.28
2022-11-27T08:03:51.423Z,73.96
2022-11-27T08:06:21.656Z,74.11
2022-11-27T08:08:50.305Z,74.93
2022-11-27T08:11:20.199Z,74.98
2022-11-27T08:13:48.270Z,74.29
2022-11-27T08:16:16.804Z,74.43
2022-11-27T08:18:44.706Z,74.49
2022-11-27T08:21:14.128Z,74.80
2022-11-27T08:23:42.225Z,74.42
2022-11-27T08:26:11.195Z,74.29
2022-11-27T08:28:39.743Z,74.17
2022-11-27T08:31:09.076Z,73.99
2022-11-27T08:33:37.611Z,73.79
2022-11-27T08:36:09.006Z,73.92
2022-11-27T08:38:39.985Z,74.16
2022-11-27T08:41:09.801Z,74.17
2022-11-27T08:43:38.165Z,74.34
2022-11-27T08:46:07.531Z,74.14
2022-11-27T08:48:36.122Z,73.70
2022-11-27T08:51:07.586Z,73.70
2022-11-27T08:53:36.162Z,73.81
2022-11-27T08:56:08.997Z,73.86
2022-11-27T08:58:37.212Z,73.45
2022-11-27T09:01:09.947Z,73.80
2022-11-27T09:03:38.206Z,73.50
2022-11-27T09:06:08.654Z,73.20
2022-11-27T09:08:36.792Z,73.45
2022-11-27T09:11:05.537Z,73.29
2022-11-27T09:13:37.037Z,73.08
2022-11-27T09:16:05.512Z,72.91
2022-11-27T09:18:34.053Z,73.03
2022-11-27T09:21:03.592Z,73.37
2022-11-27T09:23:31.656Z,73.11
2022-11-27T09:25:59.918Z,72.95
2022-11-27T09:28:31.360Z,72.52
2022-11-27T09:31:03.314Z,72.77
2022-11-27T09:33:33.461Z,72.55
2022-11-27T09:36:05.842Z,72.42
2022-11-27T09:38:34.287Z,72.60
2022-11-27T09:41:08.818Z,71.79
2022-11-27T09:43:43.085Z,71.99
2022-11-27T09:46:21.626Z,71.97
2022-11-27T09:48:52.574Z,72.53
2022-11-27T09:51:26.689Z,73.81
2022-11-27T09:54:01.651Z,73.27
2022-11-27T09:56:31.601Z,72.78
2022-11-27T09:59:01.188Z,72.23
2022-11-27T10:01:40.536Z,71.91
2022-11-27T10:04:18.984Z,72.32
2022-11-27T10:07:04.369Z,71.66
2022-11-27T10:09:47.563Z,71.91
2022-11-27T10:12:24.047Z,71.47
2022-11-27T10:15:04.196Z,70.68
2022-11-27T10:17:40.290Z,71.45
2022-11-27T10:20:28.990Z,72.81
2022-11-27T10:23:04.206Z,73.82
2022-11-27T10:25:40.652Z,74.82
2022-11-27T10:28:19.530Z,73.76
2022-11-27T10:30:53.229Z,73.42
2022-11-27T10:33:26.301Z,73.46
2022-11-27T10:35:55.033Z,73.08
2022-11-27T10:38:26.646Z,73.04
2022-11-27T10:41:06.425Z,73.87
2022-11-27T10:43:35.980Z,72.74
2022-11-27T10:46:10.290Z,72.13
2022-11-27T10:48:39.752Z,71.60
2022-11-27T10:51:15.708Z,71.80
2022-11-27T10:53:45.437Z,71.75
2022-11-27T10:56:43.480Z,71.57
2022-11-27T10:59:17.174Z,71.55
2022-11-27T11:01:47.262Z,71.67
2022-11-27T11:04:37.388Z,70.79
2022-11-27T11:07:25.437Z,70.46
2022-11-27T11:09:54.275Z,70.57
2022-11-27T11:12:24.656Z,70.70
2022-11-27T11:14:53.774Z,70.53
2022-11-27T11:17:26.184Z,70.60
2022-11-27T11:19:55.600Z,71.29
2022-11-27T11:22:23.731Z,71.59
2022-11-27T11:24:54.255Z,70.86
2022-11-27T11:27:27.478Z,70.35
2022-11-27T11:29:59.983Z,70.66
2022-11-27T11:32:30.827Z,70.66
2022-11-27T11:35:04.223Z,70.92
2022-11-27T11:37:34.897Z,70.74
2022-11-27T11:40:09.804Z,71.50
2022-11-27T11:42:50.025Z,71.69
2022-11-27T11:45:19.745Z,71.35
2022-11-27T11:47:49.276Z,71.38
2022-11-27T11:50:31.179Z,71.62
2022-11-27T11:53:03.536Z,71.38
2022-11-27T11:55:37.537Z,70.96
2022-11-27T11:58:26.716Z,70.18
2022-11-27T12:04:03.241Z,71.07
2022-11-27T12:06:44.659Z,71.20
2022-11-27T12:09:30.549Z,70.78
2022-11-27T12:12:05.803Z,71.16
2022-11-27T12:14:44.375Z,70.63
2022-11-27T12:17:25.010Z,70.53
2022-11-27T12:20:15.990Z,70.32
2022-11-27T12:23:28.282Z,70.50
2022-11-27T12:26:08.245Z,70.99
2022-11-27T12:28:57.537Z,70.67
2022-11-27T12:31:39.620Z,70.14
2022-11-27T12:34:11.505Z,70.51
2022-11-27T12:36:58.106Z,70.60
2022-11-27T12:39:33.807Z,70.91
2022-11-27T12:42:21.772Z,70.86
2022-11-27T12:44:57.468Z,70.45
2022-11-27T12:47:38.660Z,70.30
2022-11-27T12:50:15.519Z,70.88
2022-11-27T12:52:48.409Z,70.50
2022-11-27T12:55:22.853Z,71.14
2022-11-27T12:57:54.969Z,70.65
2022-11-27T13:00:26.187Z,70.34
2022-11-27T13:03:04.218Z,70.50
2022-11-27T13:05:38.747Z,70.18
2022-11-27T13:08:14.351Z,70.30
2022-11-27T13:10:50.585Z,69.95
2022-11-27T13:13:24.463Z,69.91
2022-11-27T13:15:59.003Z,69.84
2022-11-27T13:18:33.897Z,70.32
2022-11-27T13:21:05.623Z,69.86
2022-11-27T13:23:34.540Z,69.93
2022-11-27T13:26:07.188Z,70.19
2022-11-27T13:28:42.477Z,70.00
2022-11-27T13:31:20.175Z,70.59
2022-11-27T13:33:49.043Z,70.41
2022-11-27T13:36:23.479Z,70.24
2022-11-27T13:38:57.657Z,69.93
2022-11-27T13:41:33.427Z,70.05
2022-11-27T13:44:02.188Z,70.14
2022-11-27T13:46:32.460Z,70.03
2022-11-27T13:49:03.579Z,70.12
2022-11-27T13:51:33.800Z,70.52
2022-11-27T13:54:10.297Z,70.15
2022-11-27T13:56:40.202Z,70.27
2022-11-27T13:59:16.723Z,70.51
2022-11-27T14:01:55.776Z,70.53
2022-11-27T14:04:23.864Z,70.54
2022-11-27T14:06:59.180Z,71.27
2022-11-27T14:09:36.920Z,71.03
2022-11-27T14:12:20.115Z,71.54
2022-11-27T14:15:01.790Z,71.55
2022-11-27T14:17:36.987Z,71.60
2022-11-27T14:20:20.165Z,71.79
2022-11-27T14:25:38.985Z,72.92
2022-11-27T14:28:15.772Z,72.41
2022-11-27T14:30:48.174Z,72.48
2022-11-27T14:33:19.259Z,71.99
2022-11-27T14:35:49.831Z,72.19
2022-11-27T14:38:17.945Z,72.23
2022-11-27T14:40:46.335Z,72.09
2022-11-27T14:43:18.607Z,73.12
2022-11-27T14:45:49.586Z,72.63
2022-11-27T14:48:22.150Z,72.46
2022-11-27T14:50:51.517Z,72.53
2022-11-27T14:53:22.628Z,72.14
2022-11-27T14:55:53.866Z,72.59
2022-11-27T14:58:25.743Z,72.67
2022-11-27T15:00:57.667Z,73.63
2022-11-27T15:03:26.795Z,74.55
2022-11-27T15:05:58.535Z,74.07
2022-11-27T15:08:27.770Z,74.16
2022-11-27T15:10:57.865Z,74.42
2022-11-27T15:13:29.494Z,74.55
2022-11-27T15:16:01.960Z,75.07
2022-11-27T15:18:32.257Z,74.91
2022-11-27T15:21:01.287Z,74.79
2022-11-27T15:23:31.520Z,74.41
2022-11-27T15:26:15.922Z,74.80
2022-11-27T15:28:52.516Z,75.01
2022-11-27T15:31:29.600Z,75.34
2022-11-27T15:34:00.961Z,74.89
2022-11-27T15:36:35.992Z,74.87
2022-11-27T15:39:17.855Z,74.48
2022-11-27T15:41:54.646Z,74.76
2022-11-27T15:44:25.025Z,75.18
2022-11-27T15:46:55.626Z,74.99
2022-11-27T15:49:24.189Z,74.92
2022-11-27T15:51:52.562Z,75.75
2022-11-27T15:54:20.474Z,75.34
2022-11-27T15:56:48.455Z,75.09
2022-11-27T15:59:16.761Z,75.07
2022-11-27T16:01:46.140Z,75.02
2022-11-27T16:04:14.220Z,74.95
2022-11-27T16:06:42.191Z,74.89
2022-11-27T16:09:10.126Z,74.87
2022-11-27T16:11:38.080Z,74.97
2022-11-27T16:14:06.078Z,75.45
2022-11-27T16:16:35.321Z,74.80
2022-11-27T16:19:06.532Z,75.06
2022-11-27T16:21:35.933Z,75.30
2022-11-27T16:24:06.196Z,75.64
2022-11-27T16:26:34.560Z,75.29
2022-11-27T16:29:02.574Z,74.90
2022-11-27T16:31:30.993Z,75.39
2022-11-27T16:33:59.751Z,74.83
2022-11-27T16:36:30.046Z,74.91
2022-11-27T16:38:58.364Z,74.63
2022-11-27T16:41:27.020Z,74.51
2022-11-27T16:43:57.849Z,74.59
2022-11-27T16:46:28.395Z,74.48
2022-11-27T16:48:57.706Z,74.78
2022-11-27T16:51:28.447Z,74.23
2022-11-27T16:53:59.423Z,74.69
2022-11-27T16:56:29.372Z,74.66
2022-11-27T16:59:02.817Z,74.43
2022-11-27T17:01:36.064Z,74.43
2022-11-27T17:04:07.253Z,74.22
2022-11-27T17:06:36.318Z,74.30
2022-11-27T17:09:07.392Z,74.23
2022-11-27T17:11:37.389Z,74.56
2022-11-27T17:14:07.329Z,73.92
2022-11-27T17:16:37.025Z,74.06
2022-11-27T17:19:05.686Z,73.72
2022-11-27T17:21:35.210Z,73.85
2022-11-27T17:24:13.176Z,73.86
2022-11-27T17:26:44.936Z,73.65
2022-11-27T17:29:14.554Z,73.67
2022-11-27T17:31:42.930Z,73.97
2022-11-27T17:34:13.228Z,73.92
2022-11-27T17:36:43.001Z,73.92
2022-11-27T17:39:14.832Z,74.21
2022-11-27T17:41:44.879Z,74.29
2022-11-27T17:44:14.095Z,74.27
2022-11-27T17:46:44.971Z,74.32
2022-11-27T17:49:13.544Z,74.42
2022-11-27T17:51:42.053Z,74.65
2022-11-27T17:54:12.891Z,74.17
2022-11-27T17:56:40.981Z,74.53
2022-11-27T17:59:10.681Z,74.31
2022-11-27T18:01:39.844Z,74.61
2022-11-27T18:04:10.408Z,74.94
2022-11-27T18:06:38.803Z,74.67
2022-11-27T18:09:09.400Z,74.86
2022-11-27T18:11:39.704Z,74.85
2022-11-27T18:14:08.168Z,75.13
2022-11-27T18:16:38.125Z,74.94
2022-11-27T18:19:07.714Z,74.91
2022-11-27T18:21:36.254Z,74.82
2022-11-27T18:27:11.076Z,75.10
2022-11-27T18:29:41.720Z,75.20
2022-11-27T18:32:10.259Z,74.91
2022-11-27T18:34:38.345Z,74.77
2022-11-27T18:37:07.119Z,75.26
2022-11-27T18:39:36.401Z,75.31
2022-11-27T18:42:06.753Z,74.95
2022-11-27T18:44:39.577Z,75.19
2022-11-27T18:47:11.510Z,75.13
2022-11-27T18:49:40.529Z,74.92
2022-11-27T18:52:09.862Z,74.83
2022-11-27T18:54:38.306Z,75.05
2022-11-27T18:57:07.910Z,75.24
2022-11-27T18:59:36.385Z,74.96
2022-11-27T19:02:04.778Z,75.05
2022-11-27T19:04:32.862Z,75.55
2022-11-27T19:07:00.899Z,75.60
2022-11-27T19:09:29.276Z,75.62
2022-11-27T19:11:57.268Z,75.43
2022-11-27T19:14:26.610Z,75.45
2022-11-27T19:16:54.596Z,75.54
2022-11-27T19:19:53.324Z,75.66
2022-11-27T19:22:13.177Z,75.73
2022-11-27T19:24:41.449Z,75.19
2022-11-27T19:27:09.462Z,75.67
2022-11-27T19:29:38.816Z,75.60
2022-11-27T19:32:06.845Z,75.93
2022-11-27T19:34:35.085Z,75.67
2022-11-27T19:37:03.126Z,75.48
2022-11-27T19:39:31.065Z,75.77
2022-11-27T19:41:59.300Z,75.75
2022-11-27T19:44:27.601Z,75.55
2022-11-27T19:46:56.947Z,75.81
2022-11-27T19:49:26.150Z,75.78
2022-11-27T19:51:54.243Z,75.96
2022-11-27T19:54:22.192Z,75.73
2022-11-27T19:56:51.650Z,75.64
2022-11-27T19:59:24.380Z,75.73
2022-11-27T20:01:56.224Z,75.53
2022-11-27T20:04:29.249Z,76.05
2022-11-27T20:06:57.183Z,75.50
2022-11-27T20:09:25.216Z,75.46
2022-11-27T20:11:53.486Z,75.78
2022-11-27T20:14:21.744Z,75.71
2022-11-27T20:16:49.904Z,75.90
2022-11-27T20:19:20.214Z,76.45
2022-11-27T20:21:48.529Z,76.85
2022-11-27T20:24:17.141Z,76.74
2022-11-27T20:26:45.764Z,76.71
2022-11-27T20:29:15.742Z,76.70
2022-11-27T20:31:45.102Z,76.73
2022-11-27T20:34:20.399Z,77.35
2022-11-27T20:36:49.233Z,77.41
2022-11-27T20:39:21.212Z,77.64
2022-11-27T20:41:53.497Z,77.63
2022-11-27T20:44:23.483Z,77.86
2022-11-27T20:46:52.091Z,77.49
2022-11-27T20:49:22.760Z,77.32
2022-11-27T20:51:51.488Z,77.75
2022-11-27T20:54:23.102Z,77.99
2022-11-27T20:56:51.453Z,78.35
2022-11-27T20:59:20.073Z,78.10
2022-11-27T21:01:48.630Z,77.92
2022-11-27T21:04:20.770Z,77.78
2022-11-27T21:06:50.878Z,77.99
2022-11-27T21:09:20.661Z,77.95
2022-11-27T21:11:49.027Z,77.94
2022-11-27T21:14:18.274Z,77.78
2022-11-27T21:16:48.859Z,77.91
2022-11-27T21:19:20.095Z,77.69
2022-11-27T21:21:48.766Z,77.82
2022-11-27T21:24:18.580Z,77.74
2022-11-27T21:26:47.338Z,77.57
2022-11-27T21:29:16.915Z,77.88
2022-11-27T21:31:47.049Z,77.83
2022-11-27T21:34:16.428Z,77.64
2022-11-27T21:36:45.559Z,78.16
2022-11-27T21:39:20.236Z,78.04
2022-11-27T21:41:52.349Z,77.70
2022-11-27T21:44:22.342Z,77.72
2022-11-27T21:46:51.302Z,78.04
2022-11-27T21:49:21.664Z,78.02
2022-11-27T21:51:53.235Z,77.75
2022-11-27T21:54:24.622Z,77.91
2022-11-27T21:56:54.227Z,77.49
2022-11-27T21:59:22.329Z,77.55
2022-11-27T22:01:50.412Z,77.41
2022-11-27T22:04:18.894Z,77.59
2022-11-27T22:06:47.192Z,77.50
2022-11-27T22:09:16.220Z,77.30
2022-11-27T22:11:45.064Z,77.24
2022-11-27T22:14:16.317Z,77.33
2022-11-27T22:16:46.737Z,77.07
2022-11-27T22:19:16.562Z,76.91
2022-11-27T22:21:45.517Z,77.01
2022-11-27T22:24:18.860Z,77.23
2022-11-27T22:26:48.475Z,76.91
2022-11-27T22:29:18.094Z,77.16
2022-11-27T22:31:46.283Z,77.20
2022-11-27T22:34:16.962Z,77.16
2022-11-27T22:36:46.135Z,77.09
2022-11-27T22:39:14.424Z,77.11
2022-11-27T22:41:43.215Z,77.14
2022-11-27T22:44:15.698Z,77.58
2022-11-27T22:46:46.071Z,77.19
2022-11-27T22:49:16.421Z,77.33
2022-11-27T22:51:44.889Z,77.20
2022-11-27T22:54:17.205Z,77.37
2022-11-27T22:56:46.646Z,77.58
2022-11-27T23:02:07.226Z,77.84
2022-11-27T23:04:37.757Z,77.39
2022-11-27T23:07:06.714Z,77.69
2022-11-27T23:09:34.873Z,77.93
2022-11-27T23:12:02.921Z,79.07
2022-11-27T23:14:30.861Z,78.37
2022-11-27T23:16:58.922Z,78.65
2022-11-27T23:19:28.289Z,78.72
2022-11-27T23:21:56.309Z,79.02
2022-11-27T23:24:24.478Z,78.86
2022-11-27T23:26:52.445Z,78.65
2022-11-27T23:29:20.480Z,78.82
2022-11-27T23:31:48.591Z,78.78
2022-11-27T23:34:20.157Z,79.41
2022-11-27T23:36:49.544Z,78.94
2022-11-27T23:39:17.577Z,79.04
2022-11-27T23:41:46.356Z,78.60
2022-11-27T23:44:14.263Z,78.41
2022-11-27T23:46:42.279Z,78.48
2022-11-27T23:49:10.320Z,78.30
2022-11-27T23:51:38.282Z,78.01
2022-11-27T23:54:11.161Z,77.92
2022-11-27T23:56:39.910Z,78.21
2022-11-27T23:59:08.087Z,77.95
